createdAt,value
2019-02-10T13:11:49.008Z,98426.55
2019-02-10T13:14:17.175Z,98430.69
2019-02-10T13:16:45.737Z,98424.05
2019-02-10T13:19:14.214Z,98413.13
2019-02-10T13:21:42.693Z,98411.81
2019-02-10T13:24:10.892Z,98405.17
2019-02-10T13:26:39.473Z,98400.69
2019-02-10T13:29:07.926Z,98397.50
2019-02-10T13:31:36.244Z,98390.66
2019-02-10T13:34:04.694Z,98378.47
2019-02-10T13:36:32.878Z,98371.83
2019-02-10T13:39:01.352Z,98370.87
2019-02-10T13:41:37.365Z,98366.65
2019-02-10T13:44:06.219Z,98365.91
2019-02-10T13:46:34.669Z,98369.19
2019-02-10T13:49:03.156Z,98365.58
2019-02-10T13:51:31.342Z,98365.41
2019-02-10T13:53:59.807Z,98361.56
2019-02-10T13:56:27.988Z,98354.72
2019-02-10T13:58:56.182Z,98357.83
2019-02-10T14:01:24.362Z,98348.15
2019-02-10T14:03:52.783Z,98343.46
2019-02-10T14:06:21.338Z,98347.86
2019-02-10T14:08:49.777Z,98338.67
2019-02-10T14:11:18.285Z,98334.56
2019-02-10T14:13:46.649Z,98327.78
2019-02-10T14:16:14.854Z,98335.12
2019-02-10T14:18:43.302Z,98323.27
2019-02-10T14:21:11.782Z,98323.95
2019-02-10T14:23:39.963Z,98325.94
2019-02-10T14:26:08.183Z,98324.72
2019-02-10T14:28:36.384Z,98313.91
2019-02-10T14:31:04.581Z,98308.66
2019-02-10T14:33:38.677Z,98305.27
2019-02-10T14:36:02.961Z,98304.80
2019-02-10T14:38:36.426Z,98301.10
2019-02-10T14:41:01.070Z,98306.74
2019-02-10T14:43:29.532Z,98300.16
2019-02-10T14:45:57.732Z,98307.64
2019-02-10T14:48:25.920Z,98305.08
2019-02-10T14:50:54.127Z,98305.94
2019-02-10T14:53:22.311Z,98303.84
2019-02-10T14:55:50.502Z,98314.31
2019-02-10T14:58:18.678Z,98296.25
2019-02-10T15:00:46.871Z,98292.84
2019-02-10T15:03:15.058Z,98303.77
2019-02-10T15:05:43.239Z,98305.09
2019-02-10T15:08:11.786Z,98297.39
2019-02-10T15:10:42.035Z,98298.44
2019-02-10T15:13:10.203Z,98298.44
2019-02-10T15:15:38.407Z,98297.11
2019-02-10T15:18:06.673Z,98288.84
2019-02-10T15:20:35.323Z,98294.16
2019-02-10T15:23:03.544Z,98291.50
2019-02-10T15:25:31.971Z,98283.52
2019-02-10T15:28:00.148Z,98283.80
2019-02-10T15:30:28.344Z,98284.09
2019-02-10T15:32:56.837Z,98280.39
2019-02-10T15:35:26.156Z,98293.69
2019-02-10T15:37:54.401Z,98296.09
2019-02-10T15:40:22.867Z,98292.36
2019-02-10T15:42:51.047Z,98288.88
2019-02-10T15:45:19.251Z,98285.45
2019-02-10T15:47:47.429Z,98288.94
2019-02-10T15:50:15.621Z,98290.84
2019-02-10T15:52:43.802Z,98291.92
2019-02-10T15:55:12.865Z,98285.33
2019-02-10T15:57:41.025Z,98296.77
2019-02-10T16:00:12.707Z,98281.84
2019-02-10T16:02:40.881Z,98281.05
2019-02-10T16:05:09.074Z,98280.23
2019-02-10T16:07:37.269Z,98275.16
2019-02-10T16:10:08.611Z,98274.33
2019-02-10T16:12:36.790Z,98269.02
2019-02-10T16:15:06.829Z,98272.72
2019-02-10T16:17:35.438Z,98272.72
2019-02-10T16:20:04.872Z,98279.09
2019-02-10T16:22:34.707Z,98281.43
2019-02-10T16:25:02.965Z,98283.23
2019-02-10T16:27:31.166Z,98278.39
2019-02-10T16:29:59.354Z,98279.15
2019-02-10T16:32:27.554Z,98276.95
2019-02-10T16:34:55.738Z,98276.10
2019-02-10T16:37:23.923Z,98280.56
2019-02-10T16:39:52.130Z,98275.72
2019-02-10T16:42:20.383Z,98283.16
2019-02-10T16:44:48.960Z,98274.03
2019-02-10T16:47:17.494Z,98277.73
2019-02-10T16:49:45.713Z,98275.55
2019-02-10T16:52:13.916Z,98271.49
2019-02-10T16:54:42.112Z,98277.53
2019-02-10T16:57:10.302Z,98281.99
2019-02-10T16:59:38.769Z,98278.72
2019-02-10T17:02:07.250Z,98275.14
2019-02-10T17:04:35.448Z,98271.83
2019-02-10T17:07:03.906Z,98280.27
2019-02-10T17:09:32.143Z,98281.78
2019-02-10T17:12:00.315Z,98271.33
2019-02-10T17:14:30.274Z,98284.62
2019-02-10T17:16:58.484Z,98281.09
2019-02-10T17:19:27.140Z,98295.42
2019-02-10T17:21:55.725Z,98285.84
2019-02-10T17:24:24.447Z,98284.00
2019-02-10T17:26:52.997Z,98282.38
2019-02-10T17:29:21.206Z,98283.64
2019-02-10T17:31:49.468Z,98279.83
2019-02-10T17:34:18.022Z,98283.78
2019-02-10T17:36:46.617Z,98282.95
2019-02-10T17:39:14.783Z,98286.94
2019-02-10T17:41:42.975Z,98290.92
2019-02-10T17:44:11.159Z,98281.91
2019-02-10T17:46:39.354Z,98298.90
2019-02-10T17:49:07.544Z,98299.94
2019-02-10T17:51:36.063Z,98303.64
2019-02-10T17:54:04.539Z,98296.73
2019-02-10T17:56:32.743Z,98299.86
2019-02-10T17:59:04.819Z,98306.42
2019-02-10T18:01:32.347Z,98306.67
2019-02-10T18:04:00.504Z,98299.95
2019-02-10T18:06:28.697Z,98307.64
2019-02-10T18:08:57.175Z,98311.87
2019-02-10T18:11:30.865Z,98318.22
2019-02-10T18:13:55.298Z,98324.00
2019-02-10T18:16:25.476Z,98322.33
2019-02-10T18:18:58.261Z,98325.95
2019-02-10T18:21:34.916Z,98320.06
2019-02-10T18:24:16.838Z,98326.84
2019-02-10T18:26:46.680Z,98324.67
2019-02-10T18:29:22.247Z,98320.86
2019-02-10T18:31:52.075Z,98316.29
2019-02-10T18:34:40.467Z,98326.04
2019-02-10T18:37:16.069Z,98318.53
2019-02-10T18:39:46.219Z,98318.98
2019-02-10T18:42:32.183Z,98324.01
2019-02-10T18:45:08.097Z,98324.75
2019-02-10T18:47:37.924Z,98322.84
2019-02-10T18:50:10.299Z,98316.83
2019-02-10T18:52:40.146Z,98328.67
2019-02-10T18:55:16.037Z,98327.72
2019-02-10T18:57:51.719Z,98333.72
2019-02-10T19:00:38.026Z,98334.63
2019-02-10T19:03:07.978Z,98333.41
2019-02-10T19:05:50.014Z,98345.42
2019-02-10T19:08:31.563Z,98336.03
2019-02-10T19:11:04.250Z,98340.75
2019-02-10T19:13:39.944Z,98342.52
2019-02-10T19:16:15.712Z,98342.44
2019-02-10T19:18:57.523Z,98349.31
2019-02-10T19:21:43.686Z,98358.98
2019-02-10T19:24:16.485Z,98364.95
2019-02-10T19:26:49.273Z,98373.79
2019-02-10T19:29:28.110Z,98378.98
2019-02-10T19:32:00.852Z,98382.52
2019-02-10T19:34:45.238Z,98380.75
2019-02-10T19:37:21.141Z,98385.31
2019-02-10T19:40:02.668Z,98392.81
2019-02-10T19:42:41.792Z,98392.11
2019-02-10T19:45:14.428Z,98407.27
2019-02-10T19:47:47.107Z,98424.77
2019-02-10T19:50:33.437Z,98446.83
2019-02-10T19:53:19.712Z,98465.34
2019-02-10T19:55:55.746Z,98472.39
2019-02-10T19:58:40.831Z,98494.09
2019-02-10T20:01:19.515Z,98498.20
2019-02-10T20:03:52.050Z,98519.70
2019-02-10T20:06:38.056Z,98534.02
2019-02-10T20:09:24.519Z,98539.48
2019-02-10T20:12:12.357Z,98559.14
2019-02-10T20:14:58.463Z,98562.55
2019-02-10T20:17:31.121Z,98584.00
2019-02-10T20:20:19.058Z,98592.66
2019-02-10T20:22:51.336Z,98596.92
2019-02-10T20:25:21.158Z,98619.56
2019-02-10T20:28:06.951Z,98627.39
2019-02-10T20:30:52.615Z,98634.17
2019-02-10T20:33:28.604Z,98662.78
2019-02-10T20:36:04.248Z,98682.44
2019-02-10T20:38:34.108Z,98703.83
2019-02-10T20:41:20.244Z,98713.69
2019-02-10T20:43:53.034Z,98734.58
2019-02-10T20:46:39.403Z,98733.47
2019-02-10T20:49:09.254Z,98744.66
2019-02-10T20:51:39.078Z,98762.45
2019-02-10T20:54:11.779Z,98773.16
2019-02-10T20:56:47.737Z,98781.58
2019-02-10T20:59:20.215Z,98800.80
2019-02-10T21:01:59.077Z,98811.13
2019-02-10T21:04:40.868Z,98816.20
2019-02-10T21:07:16.942Z,98839.36
2019-02-10T21:09:56.002Z,98846.39
2019-02-10T21:12:42.373Z,98863.09
2019-02-10T21:15:21.588Z,98863.85
2019-02-10T21:17:51.727Z,98877.59
2019-02-10T21:20:21.552Z,98879.94
2019-02-10T21:22:54.118Z,98892.13
2019-02-10T21:25:26.784Z,98893.77
2019-02-10T21:28:11.999Z,98904.93
2019-02-10T21:30:42.094Z,98925.94
2019-02-10T21:33:14.697Z,98929.17
2019-02-10T21:35:59.543Z,98930.45
2019-02-10T21:38:38.258Z,98936.31
2019-02-10T21:41:23.292Z,98950.69
2019-02-10T21:43:53.128Z,98958.03
2019-02-10T21:46:34.871Z,98973.03
2019-02-10T21:49:04.341Z,98977.74
2019-02-10T21:51:32.517Z,98977.91
2019-02-10T21:54:01.094Z,98983.22
2019-02-10T21:56:29.278Z,99000.38
2019-02-10T21:58:57.498Z,99005.55
2019-02-10T22:01:25.661Z,99013.38
2019-02-10T22:03:54.189Z,99018.55
2019-02-10T22:06:22.369Z,99020.75
2019-02-10T22:08:50.562Z,99028.45
2019-02-10T22:11:19.016Z,99035.79
2019-02-10T22:13:47.220Z,99038.70
2019-02-10T22:16:15.390Z,99050.14
2019-02-10T22:18:43.584Z,99054.69
2019-02-10T22:21:11.757Z,99062.84
2019-02-10T22:23:39.957Z,99064.11
2019-02-10T22:26:08.480Z,99071.28
2019-02-10T22:28:36.665Z,99074.83
2019-02-10T22:31:04.858Z,99081.37
2019-02-10T22:33:33.444Z,99090.67
2019-02-10T22:36:01.647Z,99096.70
2019-02-10T22:38:29.844Z,99105.52
2019-02-10T22:40:58.063Z,99113.64
2019-02-10T22:43:26.484Z,99118.49
2019-02-10T22:45:54.684Z,99125.27
2019-02-10T22:48:22.871Z,99132.08
2019-02-10T22:50:51.335Z,99143.33
2019-02-10T22:53:19.541Z,99153.92
2019-02-10T22:55:47.747Z,99157.37
2019-02-10T22:58:15.935Z,99178.01
2019-02-10T23:00:51.141Z,99182.97
2019-02-10T23:03:19.335Z,99192.20
2019-02-10T23:05:47.517Z,99210.91
2019-02-10T23:08:15.724Z,99205.88
2019-02-10T23:10:44.210Z,99220.66
2019-02-10T23:13:12.403Z,99225.57
2019-02-10T23:15:40.588Z,99238.37
2019-02-10T23:18:09.140Z,99248.95
2019-02-10T23:20:37.314Z,99256.61
2019-02-10T23:23:08.518Z,99263.59
2019-02-10T23:25:36.713Z,99271.38
2019-02-10T23:28:04.903Z,99285.28
2019-02-10T23:30:33.105Z,99302.98
2019-02-10T23:33:01.562Z,99302.36
2019-02-10T23:35:30.048Z,99313.94
2019-02-10T23:37:58.236Z,99321.72
2019-02-10T23:40:26.420Z,99334.82
2019-02-10T23:43:01.914Z,99329.91
2019-02-10T23:45:24.520Z,99349.61
2019-02-10T23:47:52.712Z,99358.71
2019-02-10T23:50:20.900Z,99366.00
2019-02-10T23:52:49.098Z,99369.02
2019-02-10T23:55:17.284Z,99377.34
2019-02-10T23:57:45.467Z,99377.50
